Terminal Aerodrome Forecast
Issued by NWS Tallahassee, FL

Home | Current Version | Previous Version | Text Only | Print | Product List | Glossary On
Versions: 1 2 3 4 5 6 7 8 9 10 11 12 13 14 15 16 17 18 19 20
000
FTUS42 KTAE 021720
TAFTLH
TAF
KTLH 021720Z 0218/0318 26010G15KT P6SM VCTS SCT040CB BKN200
      TEMPO 0218/0221 VRB15G25KT 5SM TSRA BKN040CB
     FM030000 23004KT P6SM BKN150
     FM031200 24008KT P6SM FEW030 SCT100=

USA.gov is the U.S. government's official web portal to all federal, state and local government web resources and services.